sensor_id;sensor_type;location;lat;lon;timestamp;P1;P2;P0
57373;PMS7003;43964;53.890;25.340;2023-05-07T00:02:09;0.2;0.2;0
57373;PMS7003;43964;53.890;25.340;2023-05-07T00:06:59;0.4;0.4;0
57373;PMS7003;43964;53.890;25.340;2023-05-07T00:11:59;0.4;0.2;0
57373;PMS7003;43964;53.890;25.340;2023-05-07T00:16:21;0;0;0
57373;PMS7003;43964;53.890;25.340;2023-05-07T00:22:09;0;0;0
57373;PMS7003;43964;53.890;25.340;2023-05-07T00:26:29;0.4;0.2;0
57373;PMS7003;43964;53.890;25.340;2023-05-07T00:31:53;1;0.2;0
57373;PMS7003;43964;53.890;25.340;2023-05-07T00:37:05;0;0;0
57373;PMS7003;43964;53.890;25.340;2023-05-07T00:41:41;0;0;0
57373;PMS7003;43964;53.890;25.340;2023-05-07T00:46:39;0;0;0
57373;PMS7003;43964;53.890;25.340;2023-05-07T00:51:45;0;0;0
57373;PMS7003;43964;53.890;25.340;2023-05-07T00:56:37;0;0;0
57373;PMS7003;43964;53.890;25.340;2023-05-07T01:01:57;0.4;0.2;0
57373;PMS7003;43964;53.890;25.340;2023-05-07T01:06:45;0.6;0.6;0
57373;PMS7003;43964;53.890;25.340;2023-05-07T01:11:45;0.2;0;0
57373;PMS7003;43964;53.890;25.340;2023-05-07T01:16:49;0.4;0.2;0
57373;PMS7003;43964;53.890;25.340;2023-05-07T01:22:07;0.2;0.2;0
57373;PMS7003;43964;53.890;25.340;2023-05-07T01:26:49;0.3;0.3;0
57373;PMS7003;43964;53.890;25.340;2023-05-07T01:31:39;0.2;0.2;0
57373;PMS7003;43964;53.890;25.340;2023-05-07T01:36:19;0.2;0.2;0
57373;PMS7003;43964;53.890;25.340;2023-05-07T01:42:05;0.2;0;0
57373;PMS7003;43964;53.890;25.340;2023-05-07T01:46:41;0;0;0
57373;PMS7003;43964;53.890;25.340;2023-05-07T01:51:19;0;0;0
57373;PMS7003;43964;53.890;25.340;2023-05-07T01:57:05;0.2;0;0
57373;PMS7003;43964;53.890;25.340;2023-05-07T02:01:19;0;0;0
57373;PMS7003;43964;53.890;25.340;2023-05-07T02:06:19;0.4;0.4;0
57373;PMS7003;43964;53.890;25.340;2023-05-07T02:11:25;0;0;0
57373;PMS7003;43964;53.890;25.340;2023-05-07T02:17:05;0.4;0.2;0
57373;PMS7003;43964;53.890;25.340;2023-05-07T02:21:57;0.4;0.2;0
57373;PMS7003;43964;53.890;25.340;2023-05-07T02:27:05;0.5;0.5;0
57373;PMS7003;43964;53.890;25.340;2023-05-07T02:32:05;1;0.6;0
57373;PMS7003;43964;53.890;25.340;2023-05-07T02:36:31;0.2;0.2;0
57373;PMS7003;43964;53.890;25.340;2023-05-07T02:41:19;0.2;0;0
57373;PMS7003;43964;53.890;25.340;2023-05-07T02:47:05;0.4;0.4;0
57373;PMS7003;43964;53.890;25.340;2023-05-07T02:51:41;0;0;0
57373;PMS7003;43964;53.890;25.340;2023-05-07T02:57:07;0.4;0.2;0
57373;PMS7003;43964;53.890;25.340;2023-05-07T03:01:31;0.8;0;0
57373;PMS7003;43964;53.890;25.340;2023-05-07T03:07:05;0;0;0
57373;PMS7003;43964;53.890;25.340;2023-05-07T03:11:57;0;0;0
57373;PMS7003;43964;53.890;25.340;2023-05-07T03:16:19;0.3;0.3;0
57373;PMS7003;43964;53.890;25.340;2023-05-07T03:21:41;0;0;0
57373;PMS7003;43964;53.890;25.340;2023-05-07T03:27:05;0;0;0
57373;PMS7003;43964;53.890;25.340;2023-05-07T03:31:19;0;0;0
57373;PMS7003;43964;53.890;25.340;2023-05-07T03:36:53;0;0;0
57373;PMS7003;43964;53.890;25.340;2023-05-07T03:42:05;0;0;0
57373;PMS7003;43964;53.890;25.340;2023-05-07T03:46:49;0.3;0;0
57373;PMS7003;43964;53.890;25.340;2023-05-07T03:51:19;0;0;0
57373;PMS7003;43964;53.890;25.340;2023-05-07T03:56:45;0;0;0
57373;PMS7003;43964;53.890;25.340;2023-05-07T04:01:37;0;0;0
57373;PMS7003;43964;53.890;25.340;2023-05-07T04:06:57;0;0;0
57373;PMS7003;43964;53.890;25.340;2023-05-07T04:11:19;0.5;0;0
57373;PMS7003;43964;53.890;25.340;2023-05-07T04:16:37;0;0;0
57373;PMS7003;43964;53.890;25.340;2023-05-07T04:21:49;0;0;0
57373;PMS7003;43964;53.890;25.340;2023-05-07T04:27:05;0;0;0
57373;PMS7003;43964;53.890;25.340;2023-05-07T04:31:19;0;0;0
57373;PMS7003;43964;53.890;25.340;2023-05-07T04:36:19;0.5;0;0
57373;PMS7003;43964;53.890;25.340;2023-05-07T04:41:31;0.3;0.3;0
57373;PMS7003;43964;53.890;25.340;2023-05-07T04:47:05;0;0;0
57373;PMS7003;43964;53.890;25.340;2023-05-07T04:51:57;0.3;0;0
57373;PMS7003;43964;53.890;25.340;2023-05-07T04:56:19;0;0;0
57373;PMS7003;43964;53.890;25.340;2023-05-07T05:02:05;0.7;0;0
57373;PMS7003;43964;53.890;25.340;2023-05-07T05:06:45;0.3;0;0
57373;PMS7003;43964;53.890;25.340;2023-05-07T05:11:31;0;0;0
57373;PMS7003;43964;53.890;25.340;2023-05-07T05:16:37;0;0;0
57373;PMS7003;43964;53.890;25.340;2023-05-07T05:22:05;0.2;0;0
57373;PMS7003;43964;53.890;25.340;2023-05-07T05:26:19;0;0;0
57373;PMS7003;43964;53.890;25.340;2023-05-07T05:32:05;0.3;0;0
57373;PMS7003;43964;53.890;25.340;2023-05-07T05:37:05;0;0;0
57373;PMS7003;43964;53.890;25.340;2023-05-07T05:41:29;0;0;0
57373;PMS7003;43964;53.890;25.340;2023-05-07T05:46:41;0;0;0
57373;PMS7003;43964;53.890;25.340;2023-05-07T05:51:53;0.3;0;0
57373;PMS7003;43964;53.890;25.340;2023-05-07T05:56:37;0;0;0
57373;PMS7003;43964;53.890;25.340;2023-05-07T06:01:57;0;0;0
57373;PMS7003;43964;53.890;25.340;2023-05-07T06:06:47;0;0;0
57373;PMS7003;43964;53.890;25.340;2023-05-07T06:12:07;0;0;0
57373;PMS7003;43964;53.890;25.340;2023-05-07T06:16:51;0;0;0
57373;PMS7003;43964;53.890;25.340;2023-05-07T06:21:21;0.4;0;0
57373;PMS7003;43964;53.890;25.340;2023-05-07T06:26:21;0;0;0
57373;PMS7003;43964;53.890;25.340;2023-05-07T06:32:08;0.5;0;0
57373;PMS7003;43964;53.890;25.340;2023-05-07T06:36:31;0;0;0
57373;PMS7003;43964;53.890;25.340;2023-05-07T06:42:05;0;0;0
57373;PMS7003;43964;53.890;25.340;2023-05-07T06:46:53;0.5;0;0
57373;PMS7003;43964;53.890;25.340;2023-05-07T06:51:33;0;0;0
57373;PMS7003;43964;53.890;25.340;2023-05-07T06:56:33;0;0;0
57373;PMS7003;43964;53.890;25.340;2023-05-07T07:01:47;0.3;0;0
57373;PMS7003;43964;53.890;25.340;2023-05-07T07:06:39;0;0;0
57373;PMS7003;43964;53.890;25.340;2023-05-07T07:16:47;0;0;0
57373;PMS7003;43964;53.890;25.340;2023-05-07T07:21:21;0;0;0
57373;PMS7003;43964;53.890;25.340;2023-05-07T07:27:07;2;0;0
57373;PMS7003;43964;53.890;25.340;2023-05-07T07:32:07;0;0;0
57373;PMS7003;43964;53.890;25.340;2023-05-07T07:36:27;0;0;0
57373;PMS7003;43964;53.890;25.340;2023-05-07T07:41:21;0;0;0
57373;PMS7003;43964;53.890;25.340;2023-05-07T07:46:21;0;0;0
57373;PMS7003;43964;53.890;25.340;2023-05-07T07:52:07;0;0;0
57373;PMS7003;43964;53.890;25.340;2023-05-07T08:11:33;0;0;0
57373;PMS7003;43964;53.890;25.340;2023-05-07T08:16:39;0;0;0
57373;PMS7003;43964;53.890;25.340;2023-05-07T08:21:40;1;0;0
57373;PMS7003;43964;53.890;25.340;2023-05-07T08:27:03;0;0;0
57373;PMS7003;43964;53.890;25.340;2023-05-07T08:31:21;0;0;0
57373;PMS7003;43964;53.890;25.340;2023-05-07T08:37:07;0;0;0
57373;PMS7003;43964;53.890;25.340;2023-05-07T08:42:07;0;0;0
57373;PMS7003;43964;53.890;25.340;2023-05-07T08:46:22;0.3;0;0
57373;PMS7003;43964;53.890;25.340;2023-05-07T08:51:21;0;0;0
57373;PMS7003;43964;53.890;25.340;2023-05-07T08:56:55;0;0;0
57373;PMS7003;43964;53.890;25.340;2023-05-07T09:06:59;0;0;0
57373;PMS7003;43964;53.890;25.340;2023-05-07T09:11:47;0;0;0
57373;PMS7003;43964;53.890;25.340;2023-05-07T09:26:35;1;0;0
57373;PMS7003;43964;53.890;25.340;2023-05-07T09:31:36;0;0;0
57373;PMS7003;43964;53.890;25.340;2023-05-07T09:46:55;0;0;0
57373;PMS7003;43964;53.890;25.340;2023-05-07T09:51:56;0;0;0
57373;PMS7003;43964;53.890;25.340;2023-05-07T09:56:21;0;0;0
57373;PMS7003;43964;53.890;25.340;2023-05-07T10:01:49;0;0;0
57373;PMS7003;43964;53.890;25.340;2023-05-07T10:06:22;0;0;0
57373;PMS7003;43964;53.890;25.340;2023-05-07T10:11:22;0;0;0
57373;PMS7003;43964;53.890;25.340;2023-05-07T10:16:58;0;0;0
57373;PMS7003;43964;53.890;25.340;2023-05-07T10:22:01;0;0;0
57373;PMS7003;43964;53.890;25.340;2023-05-07T10:26:34;0;0;0
57373;PMS7003;43964;53.890;25.340;2023-05-07T10:31:52;0;0;0
57373;PMS7003;43964;53.890;25.340;2023-05-07T10:37:00;0.2;0;0
57373;PMS7003;43964;53.890;25.340;2023-05-07T10:42:08;0.3;0.3;0
57373;PMS7003;43964;53.890;25.340;2023-05-07T10:52:12;0;0;0
57373;PMS7003;43964;53.890;25.340;2023-05-07T10:57:39;0;0;0
57373;PMS7003;43964;53.890;25.340;2023-05-07T11:01:49;0;0;0
57373;PMS7003;43964;53.890;25.340;2023-05-07T11:06:28;0;0;0
57373;PMS7003;43964;53.890;25.340;2023-05-07T11:12:08;0;0;0
57373;PMS7003;43964;53.890;25.340;2023-05-07T11:17:01;0;0;0
57373;PMS7003;43964;53.890;25.340;2023-05-07T11:21:37;0.3;0;0
57373;PMS7003;43964;53.890;25.340;2023-05-07T11:26:42;0;0;0
57373;PMS7003;43964;53.890;25.340;2023-05-07T11:32:08;0;0;0
57373;PMS7003;43964;53.890;25.340;2023-05-07T11:36:34;0;0;0
57373;PMS7003;43964;53.890;25.340;2023-05-07T11:41:56;0;0;0
57373;PMS7003;43964;53.890;25.340;2023-05-07T11:47:08;0;0;0
57373;PMS7003;43964;53.890;25.340;2023-05-07T11:51:22;0;0;0
57373;PMS7003;43964;53.890;25.340;2023-05-07T11:56:22;0.2;0;0
57373;PMS7003;43964;53.890;25.340;2023-05-07T12:01:34;0;0;0
57373;PMS7003;43964;53.890;25.340;2023-05-07T12:06:22;0;0;0
57373;PMS7003;43964;53.890;25.340;2023-05-07T12:12:02;0;0;0
57373;PMS7003;43964;53.890;25.340;2023-05-07T12:16:48;0;0;0
57373;PMS7003;43964;53.890;25.340;2023-05-07T12:21:32;0.3;0;0
57373;PMS7003;43964;53.890;25.340;2023-05-07T12:26:54;0.2;0;0
57373;PMS7003;43964;53.890;25.340;2023-05-07T12:32:08;0;0;0
57373;PMS7003;43964;53.890;25.340;2023-05-07T12:36:40;0.2;0;0
57373;PMS7003;43964;53.890;25.340;2023-05-07T12:41:35;0.2;0;0
57373;PMS7003;43964;53.890;25.340;2023-05-07T12:46:38;0.2;0;0
57373;PMS7003;43964;53.890;25.340;2023-05-07T12:52:08;1;0;0
57373;PMS7003;43964;53.890;25.340;2023-05-07T13:01:22;0;0;0
57373;PMS7003;43964;53.890;25.340;2023-05-07T13:07:08;0;0;0
57373;PMS7003;43964;53.890;25.340;2023-05-07T13:11:36;0;0;0
57373;PMS7003;43964;53.890;25.340;2023-05-07T13:16:34;0;0;0
57373;PMS7003;43964;53.890;25.340;2023-05-07T13:21:40;0;0;0
57373;PMS7003;43964;53.890;25.340;2023-05-07T13:27:08;0;0;0
57373;PMS7003;43964;53.890;25.340;2023-05-07T13:31:34;0.3;0.3;0
57373;PMS7003;43964;53.890;25.340;2023-05-07T13:37:08;0;0;0
57373;PMS7003;43964;53.890;25.340;2023-05-07T13:41:56;0;0;0
57373;PMS7003;43964;53.890;25.340;2023-05-07T13:46:22;0;0;0
57373;PMS7003;43964;53.890;25.340;2023-05-07T13:51:44;0;0;0
57373;PMS7003;43964;53.890;25.340;2023-05-07T13:56:56;0;0;0
57373;PMS7003;43964;53.890;25.340;2023-05-07T14:01:54;0;0;0
57373;PMS7003;43964;53.890;25.340;2023-05-07T14:07:00;0;0;0
57373;PMS7003;43964;53.890;25.340;2023-05-07T14:11:22;0;0;0
57373;PMS7003;43964;53.890;25.340;2023-05-07T14:16:54;0.5;0;0
57373;PMS7003;43964;53.890;25.340;2023-05-07T14:22:10;0;0;0
57373;PMS7003;43964;53.890;25.340;2023-05-07T14:26:22;0;0;0
57373;PMS7003;43964;53.890;25.340;2023-05-07T14:31:34;0;0;0
57373;PMS7003;43964;53.890;25.340;2023-05-07T14:36:52;0;0;0
57373;PMS7003;43964;53.890;25.340;2023-05-07T14:41:32;0;0;0
57373;PMS7003;43964;53.890;25.340;2023-05-07T14:46:56;0;0;0
57373;PMS7003;43964;53.890;25.340;2023-05-07T14:51:57;0;0;0
57373;PMS7003;43964;53.890;25.340;2023-05-07T14:56:22;0;0;0
57373;PMS7003;43964;53.890;25.340;2023-05-07T15:31:52;0.3;0.3;0
57373;PMS7003;43964;53.890;25.340;2023-05-07T15:37:06;0.2;0;0
57373;PMS7003;43964;53.890;25.340;2023-05-07T15:41:40;0;0;0
57373;PMS7003;43964;53.890;25.340;2023-05-07T15:46:22;0;0;0
57373;PMS7003;43964;53.890;25.340;2023-05-07T15:51:22;0;0;0
57373;PMS7003;43964;53.890;25.340;2023-05-07T15:57:08;0;0;0
57373;PMS7003;43964;53.890;25.340;2023-05-07T16:01:44;0;0;0
57373;PMS7003;43964;53.890;25.340;2023-05-07T16:06:56;0;0;0
57373;PMS7003;43964;53.890;25.340;2023-05-07T16:12:08;0;0;0
57373;PMS7003;43964;53.890;25.340;2023-05-07T16:16:22;0;0;0
57373;PMS7003;43964;53.890;25.340;2023-05-07T16:21:32;0;0;0
57373;PMS7003;43964;53.890;25.340;2023-05-07T16:26:40;0;0;0
57373;PMS7003;43964;53.890;25.340;2023-05-07T16:32:08;0;0;0
57373;PMS7003;43964;53.890;25.340;2023-05-07T16:36:46;0;0;0
57373;PMS7003;43964;53.890;25.340;2023-05-07T16:42:08;0;0;0
57373;PMS7003;43964;53.890;25.340;2023-05-07T16:47:08;0;0;0
57373;PMS7003;43964;53.890;25.340;2023-05-07T16:51:22;0;0;0
57373;PMS7003;43964;53.890;25.340;2023-05-07T16:56:34;0;0;0
57373;PMS7003;43964;53.890;25.340;2023-05-07T17:01:58;0;0;0
57373;PMS7003;43964;53.890;25.340;2023-05-07T17:06:54;0;0;0
57373;PMS7003;43964;53.890;25.340;2023-05-07T17:11:34;0;0;0
57373;PMS7003;43964;53.890;25.340;2023-05-07T17:16:36;0;0;0
57373;PMS7003;43964;53.890;25.340;2023-05-07T17:22:10;0;0;0
57373;PMS7003;43964;53.890;25.340;2023-05-07T17:26:52;0;0;0
57373;PMS7003;43964;53.890;25.340;2023-05-07T17:31:32;0;0;0
57373;PMS7003;43964;53.890;25.340;2023-05-07T17:36:40;0;0;0
57373;PMS7003;43964;53.890;25.340;2023-05-07T17:42:08;0;0;0
57373;PMS7003;43964;53.890;25.340;2023-05-07T17:46:34;0;0;0
57373;PMS7003;43964;53.890;25.340;2023-05-07T17:52:08;0;0;0
57373;PMS7003;43964;53.890;25.340;2023-05-07T17:56:56;0;0;0
57373;PMS7003;43964;53.890;25.340;2023-05-07T18:01:32;0;0;0
57373;PMS7003;43964;53.890;25.340;2023-05-07T18:06:52;0;0;0
57373;PMS7003;43964;53.890;25.340;2023-05-07T18:11:34;0;0;0
57373;PMS7003;43964;53.890;25.340;2023-05-07T18:16:40;0;0;0
57373;PMS7003;43964;53.890;25.340;2023-05-07T18:21:48;0;0;0
57373;PMS7003;43964;53.890;25.340;2023-05-07T18:27:08;0;0;0
57373;PMS7003;43964;53.890;25.340;2023-05-07T18:31:48;0;0;0
57373;PMS7003;43964;53.890;25.340;2023-05-07T18:36:42;0;0;0
57373;PMS7003;43964;53.890;25.340;2023-05-07T18:41:50;0;0;0
57373;PMS7003;43964;53.890;25.340;2023-05-07T18:46:56;0;0;0
57373;PMS7003;43964;53.890;25.340;2023-05-07T18:51:44;0;0;0
57373;PMS7003;43964;53.890;25.340;2023-05-07T18:56:54;0;0;0
57373;PMS7003;43964;53.890;25.340;2023-05-07T19:02:10;0;0;0
57373;PMS7003;43964;53.890;25.340;2023-05-07T19:07:10;0;0;0
57373;PMS7003;43964;53.890;25.340;2023-05-07T19:11:22;0;0;0
57373;PMS7003;43964;53.890;25.340;2023-05-07T19:17:10;0;0;0
57373;PMS7003;43964;53.890;25.340;2023-05-07T19:21:48;0;0;0
57373;PMS7003;43964;53.890;25.340;2023-05-07T19:26:30;0;0;0
57373;PMS7003;43964;53.890;25.340;2023-05-07T19:31:40;0;0;0
57373;PMS7003;43964;53.890;25.340;2023-05-07T19:37:08;0;0;0
57373;PMS7003;43964;53.890;25.340;2023-05-07T19:41:36;0;0;0
57373;PMS7003;43964;53.890;25.340;2023-05-07T19:47:08;0;0;0
57373;PMS7003;43964;53.890;25.340;2023-05-07T19:52:08;0;0;0
57373;PMS7003;43964;53.890;25.340;2023-05-07T19:56:32;0;0;0
57373;PMS7003;43964;53.890;25.340;2023-05-07T20:01:44;0;0;0
57373;PMS7003;43964;53.890;25.340;2023-05-07T20:06:56;0;0;0
57373;PMS7003;43964;53.890;25.340;2023-05-07T20:11:52;0.3;0;0
57373;PMS7003;43964;53.890;25.340;2023-05-07T20:17:00;0;0;0
57373;PMS7003;43964;53.890;25.340;2023-05-07T20:21:48;0;0;0
57373;PMS7003;43964;53.890;25.340;2023-05-07T20:27:06;0;0;0
57373;PMS7003;43964;53.890;25.340;2023-05-07T20:31:30;0.2;0.2;0
57373;PMS7003;43964;53.890;25.340;2023-05-07T20:37:08;1;0.3;0
57373;PMS7003;43964;53.890;25.340;2023-05-07T20:41:22;0;0;0
57373;PMS7003;43964;53.890;25.340;2023-05-07T20:47:08;0;0;0
57373;PMS7003;43964;53.890;25.340;2023-05-07T20:51:22;0;0;0
57373;PMS7003;43964;53.890;25.340;2023-05-07T20:56:56;0.8;0.5;0.3
57373;PMS7003;43964;53.890;25.340;2023-05-07T21:01:56;1.2;0.4;0.2
57373;PMS7003;43964;53.890;25.340;2023-05-07T21:06:44;1.3;0.8;0
57373;PMS7003;43964;53.890;25.340;2023-05-07T21:11:52;4.4;2.8;1.6
57373;PMS7003;43964;53.890;25.340;2023-05-07T21:16:48;1.8;1.8;0.6
57373;PMS7003;43964;53.890;25.340;2023-05-07T21:21:22;1;0.6;0.2
57373;PMS7003;43964;53.890;25.340;2023-05-07T21:27:08;1.3;0.8;0.3
57373;PMS7003;43964;53.890;25.340;2023-05-07T21:32:00;1.2;0.8;0.2
57373;PMS7003;43964;53.890;25.340;2023-05-07T21:36:34;2.6;1.2;0.6
57373;PMS7003;43964;53.890;25.340;2023-05-07T21:41:52;1.6;1.6;0.8
57373;PMS7003;43964;53.890;25.340;2023-05-07T21:47:00;1.8;1.6;1
57373;PMS7003;43964;53.890;25.340;2023-05-07T21:51:54;1.3;1;0.3
57373;PMS7003;43964;53.890;25.340;2023-05-07T21:56:22;2;0.8;0.6
57373;PMS7003;43964;53.890;25.340;2023-05-07T22:01:56;1.5;1.5;0.5
57373;PMS7003;43964;53.890;25.340;2023-05-07T22:07:06;1.8;1.4;1
57373;PMS7003;43964;53.890;25.340;2023-05-07T22:12:08;2.2;1.8;1.4
57373;PMS7003;43964;53.890;25.340;2023-05-07T22:16:38;2.6;2;1.4
57373;PMS7003;43964;53.890;25.340;2023-05-07T22:22:06;1.5;1.5;0.8
57373;PMS7003;43964;53.890;25.340;2023-05-07T22:27:00;3.2;2.8;1.2
57373;PMS7003;43964;53.890;25.340;2023-05-07T22:31:34;2.5;2;1.3
57373;PMS7003;43964;53.890;25.340;2023-05-07T22:36:28;3.3;2;1.5
57373;PMS7003;43964;53.890;25.340;2023-05-07T22:42:06;1.5;1.5;1
57373;PMS7003;43964;53.890;25.340;2023-05-07T22:46:22;1.2;0.8;0.6
57373;PMS7003;43964;53.890;25.340;2023-05-07T22:52:08;2;1.5;0.8
57373;PMS7003;43964;53.890;25.340;2023-05-07T22:57:08;1.8;1.5;0.8
57373;PMS7003;43964;53.890;25.340;2023-05-07T23:01:34;1;0.8;0.2
57373;PMS7003;43964;53.890;25.340;2023-05-07T23:06:44;1.4;0.8;0.2
57373;PMS7003;43964;53.890;25.340;2023-05-07T23:11:48;1.2;0.2;0
57373;PMS7003;43964;53.890;25.340;2023-05-07T23:16:22;0.2;0.2;0
57373;PMS7003;43964;53.890;25.340;2023-05-07T23:22:00;0.4;0.4;0
57373;PMS7003;43964;53.890;25.340;2023-05-07T23:26:48;0;0;0
57373;PMS7003;43964;53.890;25.340;2023-05-07T23:31:40;0.4;0.4;0
57373;PMS7003;43964;53.890;25.340;2023-05-07T23:37:10;0.4;0.2;0
57373;PMS7003;43964;53.890;25.340;2023-05-07T23:41:36;0.8;0.2;0
57373;PMS7003;43964;53.890;25.340;2023-05-07T23:46:58;0.4;0.2;0.2
57373;PMS7003;43964;53.890;25.340;2023-05-07T23:52:10;0.2;0;0
57373;PMS7003;43964;53.890;25.340;2023-05-07T23:56:22;0.5;0;0
